SPCL/PCL METAR and TAF weather

Enter ICAO airport designator
Station Type Date Time Source
SPCL METAR 2018/12/11 22:00 UTC NOAA

SPCL 112200Z 29002KT 9999 BKN015 BKN080 24/23 Q1012 RMK BIRD HAZARD RWY 02/20 PP000


Station Type Date Time Source
SPCL Decoded METAR 2018/12/11 22:00 UTC NOAA

Pucallpa, Peru (SPCL) 08-25S 074-36W 149M
Dec 11, 2018 - 05:00 PM EST / 2018.12.11 2200 UTC
Wind: from the WNW (290 degrees) at 2 MPH (2 KT):0
Visibility: greater than 7 mile(s):0
Sky conditions: mostly cloudy
Temperature: 75 F (24 C)
Dew Point: 73 F (23 C)
Relative Humidity: 94%
Pressure (altimeter): 29.88 in. Hg (1012 hPa)
ob: SPCL 112200Z 29002KT 9999 BKN015 BKN080 24/23 Q1012 RMK BIRD HAZARD RWY 02/20 PP000
cycle: 22

Station Type Date Time Source
SPCL TAF 2018/12/11 18:33 UTC NOAA

TAF SPCL 111700Z 1118/1218 02006KT 9999 BKN015 BKN080 TX31/1119Z TN24/1211Z
TEMPO 1118/1120 5000 TSRA BKN015 FEW025CB BKN100
TEMPO 1120/1123 7000 RADZ
TEMPO 1208/1212 8000 DZ BKN010 BKN080


Example: see airport list